Time,TemperatureF,DewpointF,PressureIn,WindDirection,WindDirectionDegrees,WindSpeedMPH,WindSpeedGustMPH,Humidity,HourlyPrecipIn,Conditions,Clouds,dailyrainin,SoftwareType,DateUTC
2013-09-25 00:02:00,70.6,69.4,29.78,South,174,0.0,0.0,96,0.00,RA,,0.00,WeatherDisplay:10.37,2013-09-25 05:02:00,
2013-09-25 00:07:00,70.5,69.3,29.78,South,174,1.0,1.0,96,0.00,RA,,0.00,WeatherDisplay:10.37,2013-09-25 05:07:00,
2013-09-25 00:12:00,70.6,69.4,29.78,South,173,0.0,0.0,96,0.00,CLR,,0.00,WeatherDisplay:10.37,2013-09-25 05:12:00,
2013-09-25 00:17:00,70.6,69.4,29.78,South,179,1.2,1.2,96,0.00,CLR,,0.00,WeatherDisplay:10.37,2013-09-25 05:17:00,
2013-09-25 00:22:00,70.6,69.4,29.78,South,178,3.5,3.5,96,0.00,CLR,,0.00,WeatherDisplay:10.37,2013-09-25 05:22:00,
2013-09-25 00:27:00,70.5,69.3,29.78,SSW,200,3.5,3.5,96,0.00,CLR,,0.00,WeatherDisplay:10.37,2013-09-25 05:27:00,
2013-09-25 00:32:00,70.5,69.3,29.78,South,182,2.0,2.0,96,0.00,CLR,,0.00,WeatherDisplay:10.37,2013-09-25 05:32:00,
2013-09-25 00:37:00,70.5,69.3,29.78,South,173,3.5,3.5,96,0.00,CLR,,0.00,WeatherDisplay:10.37,2013-09-25 05:37:00,
2013-09-25 00:42:00,70.6,69.4,29.78,South,173,1.2,1.2,96,0.00,CLR,,0.00,WeatherDisplay:10.37,2013-09-25 05:42:00,
2013-09-25 00:47:00,70.6,69.4,29.78,South,169,1.2,1.2,96,0.00,CLR,,0.00,WeatherDisplay:10.37,2013-09-25 05:47:00,
2013-09-25 00:52:00,70.6,69.4,29.78,South,170,1.2,1.2,96,0.00,CLR,,0.00,WeatherDisplay:10.37,2013-09-25 05:52:00,
2013-09-25 00:57:00,70.6,69.4,29.78,South,175,3.5,3.5,96,0.00,CLR,,0.00,WeatherDisplay:10.37,2013-09-25 05:57:00,
2013-09-25 01:02:00,70.6,69.4,29.78,South,178,1.2,1.2,96,0.00,CLR,,0.00,WeatherDisplay:10.37,2013-09-25 06:02:00,
2013-09-25 01:08:00,70.5,69.3,29.78,SSE,166,0.0,0.0,96,0.00,CLR,,0.00,WeatherDisplay:10.37,2013-09-25 06:08:00,
2013-09-25 01:13:00,70.5,69.3,29.78,South,187,4.6,4.6,96,0.00,CLR,,0.00,WeatherDisplay:10.37,2013-09-25 06:13:00,
2013-09-25 01:18:00,70.3,69.1,29.78,South,186,2.3,2.3,96,0.00,CLR,,0.00,WeatherDisplay:10.37,2013-09-25 06:18:00,
2013-09-25 01:23:00,70.3,69.1,29.78,South,187,1.2,0.0,96,0.00,CLR,,0.00,WeatherDisplay:10.37,2013-09-25 06:23:00,
2013-09-25 01:28:00,70.3,69.1,29.78,South,183,4.0,4.0,96,0.00,CLR,,0.00,WeatherDisplay:10.37,2013-09-25 06:28:00,
2013-09-25 01:33:00,70.3,69.1,29.78,South,175,2.3,2.3,96,0.00,CLR,,0.00,WeatherDisplay:10.37,2013-09-25 06:33:00,
2013-09-25 01:38:00,70.2,69.0,29.78,South,180,1.2,1.2,96,0.00,CLR,,0.00,WeatherDisplay:10.37,2013-09-25 06:38:00,
2013-09-25 01:43:00,70.2,69.0,29.78,SE,135,1.2,1.2,96,0.00,CLR,,0.00,WeatherDisplay:10.37,2013-09-25 06:43:00,
2013-09-25 01:48:00,70.1,68.9,29.78,SSE,159,3.5,3.5,96,0.00,CLR,,0.00,WeatherDisplay:10.37,2013-09-25 06:48:00,
2013-09-25 01:53:00,70.1,68.9,29.78,SSE,150,1.2,1.2,96,0.00,CLR,,0.00,WeatherDisplay:10.37,2013-09-25 06:53:00,
2013-09-25 01:58:00,70.1,68.9,29.78,SSE,168,3.5,3.5,96,0.00,CLR,,0.00,WeatherDisplay:10.37,2013-09-25 06:58:00,
2013-09-25 02:03:00,70.1,68.9,29.77,South,174,2.3,2.3,96,0.00,CLR,,0.00,WeatherDisplay:10.37,2013-09-25 07:03:00,
2013-09-25 02:08:00,70.1,68.9,29.77,SSE,157,0.0,0.1,96,0.00,CLR,,0.00,WeatherDisplay:10.37,2013-09-25 07:08:00,
2013-09-25 02:13:00,70.1,69.2,29.77,South,184,0.0,0.1,97,0.00,CLR,,0.00,WeatherDisplay:10.37,2013-09-25 07:13:00,
2013-09-25 02:18:00,70.1,69.2,29.77,SSE,161,3.5,3.5,97,0.00,CLR,,0.00,WeatherDisplay:10.37,2013-09-25 07:18:00,
2013-09-25 02:23:00,70.1,69.2,29.77,SSE,159,4.6,4.6,97,0.00,CLR,,0.00,WeatherDisplay:10.37,2013-09-25 07:23:00,
2013-09-25 02:28:00,70.2,69.3,29.77,SSE,166,3.5,3.5,97,0.00,CLR,,0.00,WeatherDisplay:10.37,2013-09-25 07:28:00,
2013-09-25 02:33:00,70.2,69.3,29.77,South,180,3.0,3.0,97,0.00,CLR,,0.00,WeatherDisplay:10.37,2013-09-25 07:33:00,
2013-09-25 02:38:00,70.2,69.3,29.77,SSE,167,2.0,2.0,97,0.00,CLR,,0.00,WeatherDisplay:10.37,2013-09-25 07:38:00,
2013-09-25 02:43:00,70.2,69.3,29.77,SSE,161,1.2,0.0,97,0.00,CLR,,0.00,WeatherDisplay:10.37,2013-09-25 07:43:00,
2013-09-25 02:48:00,70.2,69.3,29.77,SSE,166,3.5,3.5,97,0.00,CLR,,0.00,WeatherDisplay:10.37,2013-09-25 07:48:00,
2013-09-25 02:53:00,70.2,69.3,29.77,South,178,1.2,1.2,97,0.00,CLR,,0.00,WeatherDisplay:10.37,2013-09-25 07:53:00,
2013-09-25 02:58:00,70.3,69.4,29.77,South,176,1.2,0.0,97,0.00,CLR,,0.00,WeatherDisplay:10.37,2013-09-25 07:58:00,
2013-09-25 03:03:00,70.3,69.4,29.77,South,178,3.5,3.5,97,0.00,CLR,,0.00,WeatherDisplay:10.37,2013-09-25 08:03:00,
2013-09-25 03:08:00,70.3,69.4,29.77,South,191,1.2,0.0,97,0.00,CLR,,0.00,WeatherDisplay:10.37,2013-09-25 08:08:00,
2013-09-25 03:13:00,70.3,69.4,29.77,South,191,0.0,0.0,97,0.00,CLR,,0.00,WeatherDisplay:10.37,2013-09-25 08:13:00,
2013-09-25 03:18:00,70.3,69.4,29.76,SSE,160,2.3,2.3,97,0.00,CLR,,0.00,WeatherDisplay:10.37,2013-09-25 08:18:00,
2013-09-25 03:23:00,70.3,69.4,29.76,South,180,0.0,0.0,97,0.00,CLR,,0.00,WeatherDisplay:10.37,2013-09-25 08:23:00,
2013-09-25 03:28:00,70.3,69.4,29.76,South,179,2.3,2.3,97,0.00,CLR,,0.00,WeatherDisplay:10.37,2013-09-25 08:28:00,
2013-09-25 03:33:00,70.2,69.3,29.76,South,180,2.3,2.3,97,0.00,CLR,,0.00,WeatherDisplay:10.37,2013-09-25 08:33:00,
2013-09-25 03:38:00,70.3,69.4,29.77,South,180,0.0,0.0,97,0.00,CLR,,0.00,WeatherDisplay:10.37,2013-09-25 08:38:00,
2013-09-25 03:43:00,70.3,69.4,29.77,South,179,3.5,3.5,97,0.00,CLR,,0.00,WeatherDisplay:10.37,2013-09-25 08:43:00,
2013-09-25 03:49:00,70.3,69.4,29.77,South,169,2.3,2.3,97,0.00,CLR,,0.00,WeatherDisplay:10.37,2013-09-25 08:49:00,
2013-09-25 03:54:00,70.3,69.4,29.77,South,171,0.0,0.0,97,0.00,CLR,,0.00,WeatherDisplay:10.37,2013-09-25 08:54:00,
2013-09-25 03:59:00,70.3,69.4,29.77,South,171,3.5,3.5,97,0.00,CLR,,0.00,WeatherDisplay:10.37,2013-09-25 08:59:00,
2013-09-25 04:04:00,70.3,69.4,29.77,South,175,0.0,0.0,97,0.00,CLR,,0.00,WeatherDisplay:10.37,2013-09-25 09:04:00,
2013-09-25 04:09:00,70.3,69.4,29.77,South,175,2.3,2.3,97,0.00,CLR,,0.00,WeatherDisplay:10.37,2013-09-25 09:09:00,
2013-09-25 04:14:00,70.3,69.4,29.77,South,175,1.2,0.0,97,0.00,CLR,,0.00,WeatherDisplay:10.37,2013-09-25 09:14:00,
2013-09-25 04:19:00,70.3,69.4,29.77,South,175,0.0,0.0,97,0.00,CLR,,0.00,WeatherDisplay:10.37,2013-09-25 09:19:00,
2013-09-25 04:24:00,70.3,69.4,29.77,South,175,0.0,0.0,97,0.00,CLR,,0.00,WeatherDisplay:10.37,2013-09-25 09:24:00,
2013-09-25 04:29:00,70.3,69.4,29.77,South,175,0.0,0.0,97,0.00,CLR,,0.00,WeatherDisplay:10.37,2013-09-25 09:29:00,
2013-09-25 04:34:00,70.3,69.4,29.77,South,175,0.0,0.0,97,0.00,CLR,,0.00,WeatherDisplay:10.37,2013-09-25 09:34:00,
2013-09-25 04:39:00,70.3,69.4,29.77,South,175,0.0,0.0,97,0.00,CLR,,0.00,WeatherDisplay:10.37,2013-09-25 09:39:00,
2013-09-25 04:44:00,70.4,69.5,29.77,South,175,0.0,0.0,97,0.00,CLR,,0.00,WeatherDisplay:10.37,2013-09-25 09:44:00,
2013-09-25 04:49:00,70.4,69.5,29.77,South,175,0.0,0.0,97,0.00,CLR,,0.00,WeatherDisplay:10.37,2013-09-25 09:49:00,
2013-09-25 04:54:00,70.4,69.5,29.77,South,175,1.2,0.0,97,0.00,CLR,,0.00,WeatherDisplay:10.37,2013-09-25 09:54:00,
2013-09-25 04:59:00,70.4,69.5,29.77,South,175,0.0,0.0,97,0.00,CLR,,0.00,WeatherDisplay:10.37,2013-09-25 09:59:00,
2013-09-25 05:04:00,70.4,69.5,29.77,South,175,0.0,0.0,97,0.00,CLR,,0.00,WeatherDisplay:10.37,2013-09-25 10:04:00,
2013-09-25 05:09:00,70.5,69.6,29.77,South,175,0.0,0.0,97,0.00,CLR,,0.00,WeatherDisplay:10.37,2013-09-25 10:09:00,
2013-09-25 05:14:00,70.5,69.6,29.76,South,175,0.0,0.0,97,0.00,CLR,,0.00,WeatherDisplay:10.37,2013-09-25 10:14:00,
2013-09-25 05:19:00,70.5,69.6,29.76,South,175,0.0,0.0,97,0.00,CLR,,0.00,WeatherDisplay:10.37,2013-09-25 10:19:00,
2013-09-25 05:24:00,70.5,69.6,29.77,South,175,0.0,0.0,97,0.00,CLR,,0.00,WeatherDisplay:10.37,2013-09-25 10:24:00,
2013-09-25 05:29:00,70.6,69.7,29.76,South,175,0.0,0.0,97,0.00,CLR,,0.00,WeatherDisplay:10.37,2013-09-25 10:29:00,
2013-09-25 05:34:00,70.6,69.7,29.77,South,175,0.0,0.0,97,0.00,CLR,,0.00,WeatherDisplay:10.37,2013-09-25 10:34:00,
2013-09-25 05:39:00,70.6,69.7,29.77,South,175,0.0,0.0,97,0.00,CLR,,0.00,WeatherDisplay:10.37,2013-09-25 10:39:00,
2013-09-25 05:44:00,70.6,69.7,29.77,South,175,0.0,0.0,97,0.00,CLR,,0.00,WeatherDisplay:10.37,2013-09-25 10:44:00,
2013-09-25 05:49:00,70.6,69.7,29.77,South,175,0.0,0.0,97,0.00,CLR,,0.00,WeatherDisplay:10.37,2013-09-25 10:49:00,
2013-09-25 05:54:00,70.7,69.8,29.77,South,174,1.2,0.0,97,0.00,CLR,,0.00,WeatherDisplay:10.37,2013-09-25 10:54:00,
2013-09-25 05:59:00,70.7,69.8,29.76,South,174,1.2,0.0,97,0.00,CLR,,0.00,WeatherDisplay:10.37,2013-09-25 10:59:00,
2013-09-25 06:04:00,70.7,69.8,29.76,South,175,0.0,0.0,97,0.00,CLR,,0.00,WeatherDisplay:10.37,2013-09-25 11:04:00,
2013-09-25 06:09:00,70.7,69.8,29.77,South,173,0.0,0.0,97,0.00,CLR,,0.00,WeatherDisplay:10.37,2013-09-25 11:09:00,
2013-09-25 06:14:00,70.7,69.8,29.77,South,174,0.0,0.0,97,0.00,CLR,,0.00,WeatherDisplay:10.37,2013-09-25 11:14:00,
2013-09-25 06:19:00,70.7,69.8,29.76,South,171,0.0,0.0,97,0.00,CLR,,0.00,WeatherDisplay:10.37,2013-09-25 11:19:00,
2013-09-25 06:24:00,70.7,69.8,29.77,South,172,0.0,0.0,97,0.00,CLR,,0.00,WeatherDisplay:10.37,2013-09-25 11:24:00,
2013-09-25 06:29:00,70.7,69.8,29.77,South,172,0.0,0.0,97,0.00,CLR,,0.00,WeatherDisplay:10.37,2013-09-25 11:29:00,
2013-09-25 06:34:00,70.7,69.8,29.77,South,172,0.0,0.0,97,0.00,CLR,,0.00,WeatherDisplay:10.37,2013-09-25 11:34:00,
2013-09-25 06:39:00,70.8,69.9,29.77,South,172,0.0,0.0,97,0.00,CLR,,0.00,WeatherDisplay:10.37,2013-09-25 11:39:00,
2013-09-25 06:44:00,70.8,69.9,29.77,South,172,0.0,0.0,97,0.00,CLR,,0.00,WeatherDisplay:10.37,2013-09-25 11:44:00,
2013-09-25 06:49:00,70.8,69.9,29.77,South,171,0.0,0.0,97,0.00,CLR,,0.00,WeatherDisplay:10.37,2013-09-25 11:49:00,
2013-09-25 06:54:00,70.8,69.9,29.77,South,171,0.0,0.0,97,0.00,CLR,,0.00,WeatherDisplay:10.37,2013-09-25 11:54:00,
2013-09-25 07:00:00,70.8,69.9,29.78,South,171,0.0,0.0,97,0.00,CLR,,0.00,WeatherDisplay:10.37,2013-09-25 12:00:00,
2013-09-25 07:05:00,70.8,69.9,29.78,South,171,0.0,0.0,97,0.01,RA,,0.01,WeatherDisplay:10.37,2013-09-25 12:05:00,
2013-09-25 07:10:00,70.8,69.9,29.78,South,171,0.0,0.0,97,0.01,RA,,0.01,WeatherDisplay:10.37,2013-09-25 12:10:00,
2013-09-25 07:15:00,70.8,69.9,29.78,South,171,0.0,0.0,97,0.01,,,0.01,WeatherDisplay:10.37,2013-09-25 12:15:00,
2013-09-25 07:20:00,70.8,69.9,29.78,South,171,0.0,0.0,97,0.01,CLR,,0.01,WeatherDisplay:10.37,2013-09-25 12:20:00,
2013-09-25 07:25:00,70.8,69.9,29.78,South,171,0.0,0.0,97,0.01,CLR,,0.01,WeatherDisplay:10.37,2013-09-25 12:25:00,
2013-09-25 07:27:00,70.9,70.0,29.78,South,171,0.0,0.0,97,0.01,CLR,,0.01,WeatherDisplay:10.37,2013-09-25 12:27:00,
2013-09-25 07:32:00,70.9,70.0,29.78,South,171,0.0,0.0,97,0.01,CLR,,0.01,WeatherDisplay:10.37,2013-09-25 12:32:00,
2013-09-25 07:37:00,70.9,70.0,29.78,South,171,0.0,0.0,97,0.01,CLR,,0.01,WeatherDisplay:10.37,2013-09-25 12:37:00,
2013-09-25 07:42:00,71.0,70.1,29.79,South,171,0.0,0.0,97,0.01,CLR,,0.01,WeatherDisplay:10.37,2013-09-25 12:42:00,
2013-09-25 07:47:00,71.0,70.1,29.78,South,171,0.0,0.0,97,0.01,CLR,,0.01,WeatherDisplay:10.37,2013-09-25 12:47:00,
2013-09-25 07:52:00,71.1,70.2,29.78,South,171,0.0,0.0,97,0.01,CLR,,0.01,WeatherDisplay:10.37,2013-09-25 12:52:00,
2013-09-25 07:57:00,71.0,70.1,29.78,South,171,0.0,0.0,97,0.01,CLR,,0.01,WeatherDisplay:10.37,2013-09-25 12:57:00,
2013-09-25 08:02:00,71.2,70.3,29.78,South,171,0.0,0.0,97,0.01,CLR,,0.01,WeatherDisplay:10.37,2013-09-25 13:02:00,
2013-09-25 08:07:00,71.2,70.3,29.78,South,171,0.0,0.0,97,0.00,CLR,,0.01,WeatherDisplay:10.37,2013-09-25 13:07:00,
2013-09-25 08:12:00,71.2,70.3,29.78,South,171,1.0,0.0,97,0.00,CLR,,0.01,WeatherDisplay:10.37,2013-09-25 13:12:00,
2013-09-25 08:17:00,71.3,70.4,29.78,South,171,0.0,0.0,97,0.00,CLR,,0.01,WeatherDisplay:10.37,2013-09-25 13:17:00,
2013-09-25 08:22:00,71.3,70.4,29.78,South,172,1.2,0.0,97,0.00,CLR,,0.01,WeatherDisplay:10.37,2013-09-25 13:22:00,
2013-09-25 08:27:00,71.5,70.6,29.78,South,172,0.0,0.0,97,0.00,CLR,,0.01,WeatherDisplay:10.37,2013-09-25 13:27:00,
2013-09-25 08:32:00,71.7,70.8,29.78,South,172,0.0,0.0,97,0.00,CLR,,0.01,WeatherDisplay:10.37,2013-09-25 13:32:00,
2013-09-25 08:37:00,71.6,70.7,29.78,South,175,0.0,0.0,97,0.00,CLR,,0.01,WeatherDisplay:10.37,2013-09-25 13:37:00,
2013-09-25 08:42:00,71.6,70.7,29.79,South,175,0.0,0.0,97,0.00,CLR,,0.01,WeatherDisplay:10.37,2013-09-25 13:42:00,
2013-09-25 08:47:00,71.7,70.8,29.79,South,175,1.2,0.0,97,0.00,CLR,,0.01,WeatherDisplay:10.37,2013-09-25 13:47:00,
2013-09-25 08:52:00,71.8,70.9,29.79,South,175,2.3,2.3,97,0.00,CLR,,0.01,WeatherDisplay:10.37,2013-09-25 13:52:00,
2013-09-25 08:57:00,71.9,71.0,29.79,South,175,1.2,1.2,97,0.00,CLR,,0.01,WeatherDisplay:10.37,2013-09-25 13:57:00,
2013-09-25 09:02:00,72.0,71.1,29.79,South,175,1.2,1.2,97,0.00,CLR,,0.01,WeatherDisplay:10.37,2013-09-25 14:02:00,
2013-09-25 09:07:00,72.0,71.1,29.79,South,182,2.3,2.3,97,0.00,CLR,,0.01,WeatherDisplay:10.37,2013-09-25 14:07:00,
2013-09-25 09:12:00,72.0,71.1,29.80,South,182,0.0,0.0,97,0.00,CLR,,0.01,WeatherDisplay:10.37,2013-09-25 14:12:00,
2013-09-25 09:17:00,72.0,71.1,29.80,South,182,1.2,0.0,97,0.00,CLR,,0.01,WeatherDisplay:10.37,2013-09-25 14:17:00,
2013-09-25 09:22:00,72.1,71.2,29.80,South,182,0.0,0.0,97,0.00,CLR,,0.01,WeatherDisplay:10.37,2013-09-25 14:22:00,
2013-09-25 09:27:00,72.2,71.3,29.80,South,182,0.0,0.1,97,0.00,CLR,,0.01,WeatherDisplay:10.37,2013-09-25 14:27:00,
2013-09-25 09:32:00,72.4,71.5,29.80,South,182,0.0,0.0,97,0.00,CLR,,0.01,WeatherDisplay:10.37,2013-09-25 14:32:00,
2013-09-25 09:37:00,72.8,71.9,29.80,East,89,1.2,0.0,97,0.00,CLR,,0.01,WeatherDisplay:10.37,2013-09-25 14:37:00,
2013-09-25 09:42:00,73.4,72.5,29.80,South,182,2.3,0.0,97,0.00,CLR,,0.01,WeatherDisplay:10.37,2013-09-25 14:42:00,
2013-09-25 09:47:00,73.4,72.2,29.80,SSW,194,3.5,3.5,96,0.00,CLR,,0.01,WeatherDisplay:10.37,2013-09-25 14:47:00,
2013-09-25 09:52:00,73.3,71.8,29.80,SSE,159,1.2,1.2,95,0.00,CLR,,0.01,WeatherDisplay:10.37,2013-09-25 14:52:00,
2013-09-25 09:57:00,73.6,72.1,29.80,SSW,192,3.0,3.0,95,0.00,CLR,,0.01,WeatherDisplay:10.37,2013-09-25 14:57:00,
2013-09-25 10:03:00,74.0,72.2,29.80,South,173,1.2,1.2,94,0.00,CLR,,0.01,WeatherDisplay:10.37,2013-09-25 15:03:00,
2013-09-25 10:08:00,74.7,72.5,29.80,South,174,3.5,3.5,93,0.00,CLR,,0.01,WeatherDisplay:10.37,2013-09-25 15:08:00,
2013-09-25 10:13:00,76.0,73.2,29.80,ENE,64,3.5,3.5,91,0.00,CLR,,0.01,WeatherDisplay:10.37,2013-09-25 15:13:00,
2013-09-25 10:18:00,76.4,72.6,29.80,SSE,156,1.2,1.2,88,0.00,CLR,,0.01,WeatherDisplay:10.37,2013-09-25 15:18:00,
2013-09-25 10:23:00,76.3,72.1,29.80,SSE,159,2.3,2.3,87,0.00,CLR,,0.01,WeatherDisplay:10.37,2013-09-25 15:23:00,
2013-09-25 10:28:00,76.3,72.1,29.80,SSW,193,3.5,3.5,87,0.00,CLR,,0.01,WeatherDisplay:10.37,2013-09-25 15:28:00,
2013-09-25 10:33:00,76.2,71.7,29.80,South,179,3.5,3.5,86,0.00,CLR,,0.01,WeatherDisplay:10.37,2013-09-25 15:33:00,
2013-09-25 10:38:00,76.5,71.7,29.80,South,183,3.5,3.5,85,0.00,CLR,,0.01,WeatherDisplay:10.37,2013-09-25 15:38:00,
2013-09-25 10:43:00,76.5,70.9,29.80,South,186,3.5,3.5,83,0.00,CLR,,0.01,WeatherDisplay:10.37,2013-09-25 15:43:00,
2013-09-25 10:48:00,76.3,70.8,29.80,South,183,3.5,3.5,83,0.00,CLR,,0.01,WeatherDisplay:10.37,2013-09-25 15:48:00,
2013-09-25 10:53:00,76.6,72.1,29.80,SSE,168,1.2,1.2,86,0.00,CLR,,0.01,WeatherDisplay:10.37,2013-09-25 15:53:00,
2013-09-25 10:58:00,77.1,71.9,29.80,SSW,199,3.5,3.5,84,0.00,CLR,,0.01,WeatherDisplay:10.37,2013-09-25 15:58:00,
2013-09-25 11:03:00,77.6,71.3,29.80,SSE,155,1.2,1.2,81,0.00,CLR,,0.01,WeatherDisplay:10.37,2013-09-25 16:03:00,
2013-09-25 11:08:00,78.3,71.2,29.79,SSW,198,5.8,5.8,79,0.00,CLR,,0.01,WeatherDisplay:10.37,2013-09-25 16:08:00,
2013-09-25 11:13:00,78.9,71.5,29.79,SSW,193,3.5,3.5,78,0.00,CLR,,0.01,WeatherDisplay:10.37,2013-09-25 16:13:00,
2013-09-25 11:18:00,79.4,71.6,29.79,South,188,4.6,4.6,77,0.00,CLR,,0.01,WeatherDisplay:10.37,2013-09-25 16:18:00,
2013-09-25 11:23:00,79.6,71.4,29.79,SSW,202,4.6,4.6,76,0.00,CLR,,0.01,WeatherDisplay:10.37,2013-09-25 16:23:00,
2013-09-25 11:28:00,79.8,71.9,29.79,SSW,193,3.5,3.5,77,0.00,CLR,,0.01,WeatherDisplay:10.37,2013-09-25 16:28:00,
2013-09-25 11:33:00,80.3,71.3,29.79,South,173,5.8,5.8,74,0.00,CLR,,0.01,WeatherDisplay:10.37,2013-09-25 16:33:00,
2013-09-25 11:38:00,80.7,71.2,29.79,South,174,3.5,3.5,73,0.00,CLR,,0.01,WeatherDisplay:10.37,2013-09-25 16:38:00,
2013-09-25 11:43:00,80.6,70.7,29.79,South,187,4.6,4.6,72,0.00,CLR,,0.01,WeatherDisplay:10.37,2013-09-25 16:43:00,
2013-09-25 11:48:00,80.3,70.9,29.79,SSE,149,6.9,6.9,73,0.00,CLR,,0.01,WeatherDisplay:10.37,2013-09-25 16:48:00,
2013-09-25 11:53:00,80.7,71.2,29.79,South,176,3.0,3.0,73,0.00,CLR,,0.01,WeatherDisplay:10.37,2013-09-25 16:53:00,
2013-09-25 11:58:00,81.4,71.5,29.78,SSW,197,4.0,4.0,72,0.00,CLR,,0.01,WeatherDisplay:10.37,2013-09-25 16:58:00,
2013-09-25 12:03:00,81.8,71.1,29.78,SSW,192,4.6,4.6,70,0.00,CLR,,0.01,WeatherDisplay:10.37,2013-09-25 17:03:00,
2013-09-25 12:08:00,81.3,70.6,29.78,South,184,2.3,2.3,70,0.00,CLR,,0.01,WeatherDisplay:10.37,2013-09-25 17:08:00,
2013-09-25 12:13:00,80.7,70.0,29.78,South,191,2.3,2.3,70,0.00,CLR,,0.01,WeatherDisplay:10.37,2013-09-25 17:13:00,
2013-09-25 12:18:00,79.9,70.1,29.78,SSW,196,3.5,3.5,72,0.00,CLR,,0.01,WeatherDisplay:10.37,2013-09-25 17:18:00,
2013-09-25 12:23:00,79.4,70.8,29.78,SSW,209,1.2,1.2,75,0.00,CLR,,0.01,WeatherDisplay:10.37,2013-09-25 17:23:00,
2013-09-25 12:28:00,79.3,70.7,29.78,SW,219,4.6,4.6,75,0.00,CLR,,0.01,WeatherDisplay:10.37,2013-09-25 17:28:00,
2013-09-25 12:33:00,79.8,71.2,29.78,WNW,288,1.2,1.2,75,0.00,CLR,,0.01,WeatherDisplay:10.37,2013-09-25 17:33:00,
2013-09-25 12:38:00,80.0,71.0,29.78,West,276,2.3,0.0,74,0.00,CLR,,0.01,WeatherDisplay:10.37,2013-09-25 17:38:00,
2013-09-25 12:43:00,79.8,70.4,29.78,WNW,287,2.3,2.3,73,0.00,CLR,,0.01,WeatherDisplay:10.37,2013-09-25 17:43:00,
2013-09-25 12:48:00,79.5,70.1,29.78,SSW,196,2.3,2.3,73,0.00,CLR,,0.01,WeatherDisplay:10.37,2013-09-25 17:48:00,
2013-09-25 12:53:00,79.1,69.7,29.78,SSW,205,3.5,3.5,73,0.00,CLR,,0.01,WeatherDisplay:10.37,2013-09-25 17:53:00,
2013-09-25 12:58:00,79.1,70.1,29.78,West,269,1.2,1.2,74,0.00,CLR,,0.01,WeatherDisplay:10.37,2013-09-25 17:58:00,
2013-09-25 13:03:00,79.6,70.6,29.77,SW,227,1.2,1.2,74,0.00,CLR,,0.01,WeatherDisplay:10.37,2013-09-25 18:03:00,
2013-09-25 13:08:00,79.9,70.1,29.77,West,268,0.0,0.0,72,0.00,CLR,,0.01,WeatherDisplay:10.37,2013-09-25 18:08:00,
2013-09-25 13:13:00,80.0,70.2,29.77,West,267,0.0,0.0,72,0.00,CLR,,0.01,WeatherDisplay:10.37,2013-09-25 18:13:00,
2013-09-25 13:18:00,80.0,69.7,29.77,WSW,238,1.2,0.0,71,0.00,CLR,,0.01,WeatherDisplay:10.37,2013-09-25 18:18:00,
2013-09-25 13:23:00,80.0,70.6,29.77,West,267,0.0,0.3,73,0.00,CLR,,0.01,WeatherDisplay:10.37,2013-09-25 18:23:00,
2013-09-25 13:28:00,80.2,71.2,29.77,West,267,1.2,0.0,74,0.00,CLR,,0.01,WeatherDisplay:10.37,2013-09-25 18:28:00,
2013-09-25 13:33:00,81.0,71.1,29.76,NE,34,2.3,2.3,72,0.00,CLR,,0.01,WeatherDisplay:10.37,2013-09-25 18:33:00,
2013-09-25 13:38:00,81.5,70.8,29.76,SSW,200,1.2,0.0,70,0.00,CLR,,0.01,WeatherDisplay:10.37,2013-09-25 18:38:00,
2013-09-25 13:43:00,81.7,71.0,29.76,North,5,3.5,0.0,70,0.00,CLR,,0.01,WeatherDisplay:10.37,2013-09-25 18:43:00,
2013-09-25 13:48:00,81.8,70.6,29.76,SW,220,2.3,2.3,69,0.00,CLR,,0.01,WeatherDisplay:10.37,2013-09-25 18:48:00,
2013-09-25 13:53:00,81.9,70.3,29.76,SSW,207,2.3,2.3,68,0.00,CLR,,0.01,WeatherDisplay:10.37,2013-09-25 18:53:00,
2013-09-25 13:58:00,82.2,70.1,29.76,West,268,1.2,1.2,67,0.00,CLR,,0.01,WeatherDisplay:10.37,2013-09-25 18:58:00,
2013-09-25 14:03:00,82.4,70.3,29.76,SW,233,0.0,0.0,67,0.00,CLR,,0.01,WeatherDisplay:10.37,2013-09-25 19:03:00,
2013-09-25 14:09:00,82.1,70.1,29.76,SW,222,1.2,0.0,67,0.00,CLR,,0.01,WeatherDisplay:10.37,2013-09-25 19:09:00,
2013-09-25 14:14:00,81.9,70.3,29.76,West,273,0.0,0.0,68,0.00,CLR,,0.01,WeatherDisplay:10.37,2013-09-25 19:14:00,
2013-09-25 14:19:00,81.8,70.2,29.76,NNW,346,2.3,2.3,68,0.00,CLR,,0.01,WeatherDisplay:10.37,2013-09-25 19:19:00,
2013-09-25 14:24:00,81.8,70.2,29.76,NE,51,6.9,6.9,68,0.00,CLR,,0.01,WeatherDisplay:10.37,2013-09-25 19:24:00,
2013-09-25 14:29:00,81.6,69.6,29.75,NW,309,4.6,4.6,67,0.00,CLR,,0.01,WeatherDisplay:10.37,2013-09-25 19:29:00,
2013-09-25 14:34:00,81.4,69.8,29.75,NNW,336,4.6,4.6,68,0.00,CLR,,0.01,WeatherDisplay:10.37,2013-09-25 19:34:00,
2013-09-25 14:39:00,81.4,69.8,29.75,North,5,1.2,0.0,68,0.00,CLR,,0.01,WeatherDisplay:10.37,2013-09-25 19:39:00,
2013-09-25 14:44:00,81.4,68.9,29.75,WNW,302,3.5,3.5,66,0.00,CLR,,0.01,WeatherDisplay:10.37,2013-09-25 19:44:00,
2013-09-25 14:49:00,81.6,69.1,29.75,SSW,206,2.3,2.3,66,0.00,CLR,,0.01,WeatherDisplay:10.37,2013-09-25 19:49:00,
2013-09-25 14:54:00,81.8,68.9,29.75,North,360,2.3,2.3,65,0.00,CLR,,0.01,WeatherDisplay:10.37,2013-09-25 19:54:00,
2013-09-25 14:59:00,81.8,68.4,29.75,NW,317,3.5,3.5,64,0.00,CLR,,0.01,WeatherDisplay:10.37,2013-09-25 19:59:00,
2013-09-25 15:04:00,81.7,68.3,29.75,SSW,211,1.2,1.2,64,0.00,CLR,,0.01,WeatherDisplay:10.37,2013-09-25 20:04:00,
2013-09-25 15:09:00,81.6,67.8,29.75,West,276,1.2,0.0,63,0.00,CLR,,0.01,WeatherDisplay:10.37,2013-09-25 20:09:00,
2013-09-25 15:14:00,81.4,67.6,29.75,SW,223,1.2,0.0,63,0.00,CLR,,0.01,WeatherDisplay:10.37,2013-09-25 20:14:00,
2013-09-25 15:19:00,81.2,67.9,29.75,SW,222,1.0,0.0,64,0.00,CLR,,0.01,WeatherDisplay:10.37,2013-09-25 20:19:00,
2013-09-25 15:24:00,81.1,67.3,29.75,SW,223,0.0,0.0,63,0.00,CLR,,0.01,WeatherDisplay:10.37,2013-09-25 20:24:00,
2013-09-25 15:29:00,81.2,67.4,29.75,WSW,254,1.2,0.0,63,0.00,CLR,,0.01,WeatherDisplay:10.37,2013-09-25 20:29:00,
2013-09-25 15:34:00,81.4,67.6,29.75,SSW,210,0.0,0.5,63,0.00,CLR,,0.01,WeatherDisplay:10.37,2013-09-25 20:34:00,
2013-09-25 15:39:00,81.6,67.8,29.75,SSW,211,1.2,0.0,63,0.00,CLR,,0.01,WeatherDisplay:10.37,2013-09-25 20:39:00,
2013-09-25 15:44:00,81.8,68.0,29.75,SSW,211,2.3,0.0,63,0.00,CLR,,0.01,WeatherDisplay:10.37,2013-09-25 20:44:00,
2013-09-25 15:49:00,82.1,68.3,29.75,NW,325,1.2,1.9,63,0.00,CLR,,0.01,WeatherDisplay:10.37,2013-09-25 20:49:00,
2013-09-25 15:54:00,82.4,68.1,29.75,NE,34,1.2,1.2,62,0.00,CLR,,0.01,WeatherDisplay:10.37,2013-09-25 20:54:00,
2013-09-25 16:00:00,82.6,68.3,29.75,NE,38,0.0,0.1,62,0.00,CLR,,0.01,WeatherDisplay:10.37,2013-09-25 21:00:00,
2013-09-25 16:05:00,82.8,68.0,29.75,South,184,1.2,1.2,61,0.00,CLR,,0.01,WeatherDisplay:10.37,2013-09-25 21:05:00,
2013-09-25 16:10:00,82.8,67.0,29.75,South,183,1.2,0.0,59,0.00,CLR,,0.01,WeatherDisplay:10.37,2013-09-25 21:10:00,
2013-09-25 16:15:00,82.9,67.6,29.75,South,185,1.2,1.2,60,0.00,CLR,,0.01,WeatherDisplay:10.37,2013-09-25 21:15:00,
2013-09-25 16:20:00,83.2,67.9,29.75,SSW,193,0.0,0.3,60,0.00,CLR,,0.01,WeatherDisplay:10.37,2013-09-25 21:20:00,
2013-09-25 16:25:00,83.8,68.4,29.75,WSW,246,1.2,0.0,60,0.00,CLR,,0.01,WeatherDisplay:10.37,2013-09-25 21:25:00,
2013-09-25 16:30:00,84.2,67.8,29.75,North,5,3.5,3.5,58,0.00,CLR,,0.01,WeatherDisplay:10.37,2013-09-25 21:30:00,
2013-09-25 16:35:00,84.1,68.2,29.76,NNE,18,5.0,0.0,59,0.00,CLR,,0.01,WeatherDisplay:10.37,2013-09-25 21:35:00,
2013-09-25 16:40:00,83.7,67.8,29.76,NNE,16,2.0,0.0,59,0.00,CLR,,0.01,WeatherDisplay:10.37,2013-09-25 21:40:00,
2013-09-25 16:45:00,83.6,68.7,29.76,North,2,1.0,0.0,61,0.00,CLR,,0.01,WeatherDisplay:10.37,2013-09-25 21:45:00,
2013-09-25 16:50:00,83.6,68.7,29.76,NNW,329,4.6,4.6,61,0.00,CLR,,0.01,WeatherDisplay:10.37,2013-09-25 21:50:00,
2013-09-25 16:55:00,83.6,68.2,29.76,North,355,6.9,6.9,60,0.00,CLR,,0.01,WeatherDisplay:10.37,2013-09-25 21:55:00,
2013-09-25 17:00:00,83.4,68.1,29.76,North,355,3.5,3.5,60,0.00,CLR,,0.01,WeatherDisplay:10.37,2013-09-25 22:00:00,
2013-09-25 17:05:00,83.4,68.1,29.76,NNE,18,4.6,4.6,60,0.00,CLR,,0.01,WeatherDisplay:10.37,2013-09-25 22:05:00,
2013-09-25 17:10:00,83.2,67.9,29.76,NNW,346,1.2,1.2,60,0.00,CLR,,0.01,WeatherDisplay:10.37,2013-09-25 22:10:00,
2013-09-25 17:15:00,83.1,67.8,29.76,North,0,2.0,0.0,60,0.00,CLR,,0.01,WeatherDisplay:10.37,2013-09-25 22:15:00,
2013-09-25 17:20:00,83.1,67.8,29.76,NNE,20,2.0,0.0,60,0.00,CLR,,0.01,WeatherDisplay:10.37,2013-09-25 22:20:00,
2013-09-25 17:25:00,83.1,67.8,29.76,NNE,19,1.0,0.0,60,0.00,CLR,,0.01,WeatherDisplay:10.37,2013-09-25 22:25:00,
2013-09-25 17:30:00,83.0,67.7,29.76,NW,311,3.5,3.5,60,0.00,CLR,,0.01,WeatherDisplay:10.37,2013-09-25 22:30:00,
2013-09-25 17:35:00,82.8,67.5,29.76,NNE,22,3.5,3.5,60,0.00,CLR,,0.01,WeatherDisplay:10.37,2013-09-25 22:35:00,
2013-09-25 17:40:00,82.4,67.1,29.77,NNW,332,4.6,4.6,60,0.00,CLR,,0.01,WeatherDisplay:10.37,2013-09-25 22:40:00,
2013-09-25 17:45:00,82.0,67.3,29.77,North,356,2.0,0.0,61,0.00,CLR,,0.01,WeatherDisplay:10.37,2013-09-25 22:45:00,
2013-09-25 17:50:00,81.6,67.3,29.77,NNE,21,1.0,0.0,62,0.00,CLR,,0.01,WeatherDisplay:10.37,2013-09-25 22:50:00,
2013-09-25 17:55:00,81.3,67.0,29.77,North,358,1.0,0.0,62,0.00,CLR,,0.01,WeatherDisplay:10.37,2013-09-25 22:55:00,
2013-09-25 18:00:00,81.1,67.3,29.77,NNW,346,2.3,2.3,63,0.00,CLR,,0.01,WeatherDisplay:10.37,2013-09-25 23:00:00,
2013-09-25 18:05:00,80.9,67.1,29.77,NNE,29,1.2,0.0,63,0.00,CLR,,0.01,WeatherDisplay:10.37,2013-09-25 23:05:00,
2013-09-25 18:10:00,80.8,67.5,29.77,NNE,28,0.0,0.0,64,0.00,CLR,,0.01,WeatherDisplay:10.37,2013-09-25 23:10:00,
2013-09-25 18:15:00,80.6,66.9,29.77,North,352,0.0,0.0,63,0.00,CLR,,0.01,WeatherDisplay:10.37,2013-09-25 23:15:00,
2013-09-25 18:20:00,80.5,67.2,29.78,NNW,345,0.0,0.0,64,0.00,CLR,,0.01,WeatherDisplay:10.37,2013-09-25 23:20:00,
2013-09-25 18:25:00,80.4,67.1,29.78,NNW,344,0.0,0.0,64,0.00,CLR,,0.01,WeatherDisplay:10.37,2013-09-25 23:25:00,
2013-09-25 18:30:00,80.3,67.0,29.78,NNW,344,0.0,0.0,64,0.00,CLR,,0.01,WeatherDisplay:10.37,2013-09-25 23:30:00,
2013-09-25 18:35:00,80.2,67.4,29.78,NNW,337,1.2,0.0,65,0.00,CLR,,0.01,WeatherDisplay:10.37,2013-09-25 23:35:00,
2013-09-25 18:40:00,80.0,67.2,29.78,NNW,337,1.2,1.2,65,0.00,CLR,,0.01,WeatherDisplay:10.37,2013-09-25 23:40:00,
2013-09-25 18:45:00,80.0,67.2,29.78,NNW,337,0.0,0.0,65,0.00,CLR,,0.01,WeatherDisplay:10.37,2013-09-25 23:45:00,
2013-09-25 18:50:00,79.9,68.0,29.78,NNW,337,0.0,0.0,67,0.00,CLR,,0.01,WeatherDisplay:10.37,2013-09-25 23:50:00,
2013-09-25 18:55:00,79.7,67.3,29.78,NNW,338,0.0,0.0,66,0.00,CLR,,0.01,WeatherDisplay:10.37,2013-09-25 23:55:00,
2013-09-25 19:00:00,79.6,67.7,29.78,NNW,339,0.0,0.0,67,0.00,CLR,,0.01,WeatherDisplay:10.37,2013-09-26 00:00:00,
2013-09-25 19:05:00,79.4,67.9,29.78,NNW,339,0.0,0.0,68,0.00,CLR,,0.01,WeatherDisplay:10.37,2013-09-26 00:05:00,
2013-09-25 19:10:00,79.2,67.7,29.78,NNW,339,0.0,0.0,68,0.00,CLR,,0.01,WeatherDisplay:10.37,2013-09-26 00:10:00,
2013-09-25 19:15:00,78.9,67.5,29.78,NNW,339,0.0,0.0,68,0.00,CLR,,0.01,WeatherDisplay:10.37,2013-09-26 00:15:00,
2013-09-25 19:20:00,78.7,67.7,29.78,NNW,338,0.0,0.0,69,0.00,CLR,,0.01,WeatherDisplay:10.37,2013-09-26 00:20:00,
2013-09-25 19:25:00,78.7,67.7,29.78,NNW,339,0.0,0.0,69,0.00,CLR,,0.01,WeatherDisplay:10.37,2013-09-26 00:25:00,
2013-09-25 19:30:00,78.4,67.8,29.78,NNW,348,0.0,0.0,70,0.00,CLR,,0.01,WeatherDisplay:10.37,2013-09-26 00:30:00,
2013-09-25 19:35:00,78.2,67.6,29.78,North,350,0.0,0.0,70,0.00,CLR,,0.01,WeatherDisplay:10.37,2013-09-26 00:35:00,
2013-09-25 19:40:00,78.0,67.8,29.79,North,350,0.0,0.0,71,0.00,CLR,,0.01,WeatherDisplay:10.37,2013-09-26 00:40:00,
2013-09-25 19:45:00,77.8,69.2,29.79,North,350,0.0,0.0,75,0.00,CLR,,0.01,WeatherDisplay:10.37,2013-09-26 00:45:00,
2013-09-25 19:50:00,77.0,68.9,29.79,North,350,0.0,0.0,76,0.00,CLR,,0.01,WeatherDisplay:10.37,2013-09-26 00:50:00,
2013-09-25 19:54:00,76.1,69.1,29.79,North,350,0.0,0.0,79,0.00,CLR,,0.01,WeatherDisplay:10.37,2013-09-26 00:54:00,
2013-09-25 19:59:00,75.4,69.2,29.79,North,350,0.0,0.0,81,0.00,CLR,,0.01,WeatherDisplay:10.37,2013-09-26 00:59:00,
2013-09-25 20:05:00,74.8,68.9,29.79,North,350,0.0,0.0,82,0.00,CLR,,0.01,WeatherDisplay:10.37,2013-09-26 01:05:00,
2013-09-25 20:10:00,74.2,68.7,29.79,North,350,0.0,0.0,83,0.00,CLR,,0.01,WeatherDisplay:10.37,2013-09-26 01:10:00,
2013-09-25 20:15:00,73.7,68.6,29.79,North,350,0.0,0.0,84,0.00,CLR,,0.01,WeatherDisplay:10.37,2013-09-26 01:15:00,
2013-09-25 20:20:00,73.3,68.5,29.80,North,350,0.0,0.0,85,0.00,CLR,,0.01,WeatherDisplay:10.37,2013-09-26 01:20:00,
2013-09-25 20:25:00,73.1,68.3,29.80,North,350,0.0,0.0,85,0.00,CLR,,0.01,WeatherDisplay:10.37,2013-09-26 01:25:00,
2013-09-25 20:30:00,72.9,68.1,29.80,North,350,0.0,0.0,85,0.00,CLR,,0.01,WeatherDisplay:10.37,2013-09-26 01:30:00,
2013-09-25 20:35:00,72.8,68.4,29.80,North,350,0.0,0.0,86,0.00,CLR,,0.01,WeatherDisplay:10.37,2013-09-26 01:35:00,
2013-09-25 20:40:00,72.4,68.3,29.80,North,349,0.0,0.0,87,0.00,CLR,,0.01,WeatherDisplay:10.37,2013-09-26 01:40:00,
2013-09-25 20:45:00,72.0,67.9,29.80,North,349,0.0,0.0,87,0.00,CLR,,0.01,WeatherDisplay:10.37,2013-09-26 01:45:00,
2013-09-25 20:50:00,71.7,67.6,29.80,North,350,0.0,0.0,87,0.00,CLR,,0.01,WeatherDisplay:10.37,2013-09-26 01:50:00,
2013-09-25 20:55:00,71.4,67.7,29.81,North,350,0.0,0.0,88,0.00,CLR,,0.01,WeatherDisplay:10.37,2013-09-26 01:55:00,
2013-09-25 21:00:00,71.3,67.6,29.80,North,350,0.0,0.0,88,0.00,CLR,,0.01,WeatherDisplay:10.37,2013-09-26 02:00:00,
2013-09-25 21:05:00,71.1,67.4,29.81,North,350,0.0,0.0,88,0.00,CLR,,0.01,WeatherDisplay:10.37,2013-09-26 02:05:00,
2013-09-25 21:10:00,71.0,67.6,29.80,North,350,0.0,0.0,89,0.00,CLR,,0.01,WeatherDisplay:10.37,2013-09-26 02:10:00,
2013-09-25 21:15:00,70.8,67.4,29.81,North,350,0.0,0.0,89,0.00,CLR,,0.01,WeatherDisplay:10.37,2013-09-26 02:15:00,
2013-09-25 21:20:00,70.7,67.6,29.81,North,350,0.0,0.0,90,0.00,CLR,,0.01,WeatherDisplay:10.37,2013-09-26 02:20:00,
2013-09-25 21:25:00,70.6,67.5,29.81,North,350,0.0,0.0,90,0.00,CLR,,0.01,WeatherDisplay:10.37,2013-09-26 02:25:00,
2013-09-25 21:30:00,70.5,67.4,29.81,North,350,0.0,0.0,90,0.00,CLR,,0.01,WeatherDisplay:10.37,2013-09-26 02:30:00,
2013-09-25 21:35:00,70.4,67.3,29.81,North,349,0.0,0.0,90,0.00,CLR,,0.01,WeatherDisplay:10.37,2013-09-26 02:35:00,
2013-09-25 21:40:00,70.2,67.1,29.81,North,349,0.0,0.0,90,0.00,CLR,,0.01,WeatherDisplay:10.37,2013-09-26 02:40:00,
2013-09-25 21:45:00,70.1,67.3,29.81,North,350,0.0,0.0,91,0.00,CLR,,0.01,WeatherDisplay:10.37,2013-09-26 02:45:00,
2013-09-25 21:50:00,70.0,67.3,29.82,North,350,0.0,0.0,91,0.00,CLR,,0.01,WeatherDisplay:10.37,2013-09-26 02:50:00,
2013-09-25 21:55:00,69.9,67.1,29.82,North,350,0.0,0.0,91,0.00,CLR,,0.01,WeatherDisplay:10.37,2013-09-26 02:55:00,
2013-09-25 22:00:00,69.7,67.0,29.82,North,350,0.0,0.0,91,0.00,CLR,,0.01,WeatherDisplay:10.37,2013-09-26 03:00:00,
2013-09-25 22:05:00,69.6,66.9,29.82,North,350,0.0,0.0,91,0.00,CLR,,0.01,WeatherDisplay:10.37,2013-09-26 03:05:00,
2013-09-25 22:10:00,69.5,66.8,29.82,North,350,0.0,0.0,91,0.00,CLR,,0.01,WeatherDisplay:10.37,2013-09-26 03:10:00,
2013-09-25 22:15:00,69.4,67.0,29.82,North,349,0.0,0.0,92,0.00,CLR,,0.01,WeatherDisplay:10.37,2013-09-26 03:15:00,
2013-09-25 22:20:00,69.3,66.9,29.82,North,349,0.0,0.0,92,0.00,CLR,,0.01,WeatherDisplay:10.37,2013-09-26 03:20:00,
2013-09-25 22:25:00,69.2,66.8,29.82,North,350,0.0,0.0,92,0.00,CLR,,0.01,WeatherDisplay:10.37,2013-09-26 03:25:00,
2013-09-25 22:30:00,69.0,66.6,29.82,North,350,0.0,0.0,92,0.00,CLR,,0.01,WeatherDisplay:10.37,2013-09-26 03:30:00,
2013-09-25 22:35:00,68.9,66.5,29.82,North,349,0.0,0.0,92,0.00,CLR,,0.01,WeatherDisplay:10.37,2013-09-26 03:35:00,
2013-09-25 22:40:00,68.8,66.4,29.82,North,350,0.0,0.0,92,0.00,CLR,,0.01,WeatherDisplay:10.37,2013-09-26 03:40:00,
2013-09-25 22:45:00,68.6,66.2,29.82,North,350,0.0,0.0,92,0.00,CLR,,0.01,WeatherDisplay:10.37,2013-09-26 03:45:00,
2013-09-25 22:50:00,68.6,66.5,29.82,North,350,0.0,0.0,93,0.00,CLR,,0.01,WeatherDisplay:10.37,2013-09-26 03:50:00,
2013-09-25 22:55:00,68.5,66.1,29.82,North,349,0.0,0.0,92,0.00,CLR,,0.01,WeatherDisplay:10.37,2013-09-26 03:55:00,
2013-09-25 23:00:00,68.4,66.3,29.82,North,350,0.0,0.0,93,0.00,CLR,,0.01,WeatherDisplay:10.37,2013-09-26 04:00:00,
2013-09-25 23:01:00,68.4,66.3,29.82,North,350,0.0,0.0,93,0.00,CLR,,0.01,WeatherDisplay:10.37,2013-09-26 04:01:00,
2013-09-25 23:02:00,68.4,66.3,29.82,North,349,0.0,0.0,93,0.00,CLR,,0.01,WeatherDisplay:10.37,2013-09-26 04:02:00,
2013-09-25 23:07:00,68.4,66.3,29.82,North,350,0.0,0.0,93,0.00,CLR,,0.01,WeatherDisplay:10.37,2013-09-26 04:07:00,
2013-09-25 23:12:00,68.3,66.2,29.82,North,350,0.0,0.0,93,0.00,CLR,,0.01,WeatherDisplay:10.37,2013-09-26 04:12:00,
2013-09-25 23:17:00,68.3,66.2,29.82,North,349,0.0,0.0,93,0.00,CLR,,0.01,WeatherDisplay:10.37,2013-09-26 04:17:00,
2013-09-25 23:22:00,68.3,66.2,29.82,North,350,0.0,0.0,93,0.00,CLR,,0.01,WeatherDisplay:10.37,2013-09-26 04:22:00,
2013-09-25 23:27:00,68.2,66.1,29.82,North,350,0.0,0.0,93,0.00,CLR,,0.01,WeatherDisplay:10.37,2013-09-26 04:27:00,
2013-09-25 23:32:00,68.2,66.1,29.82,North,349,0.0,0.0,93,0.00,CLR,,0.01,WeatherDisplay:10.37,2013-09-26 04:32:00,
2013-09-25 23:37:00,68.1,66.0,29.82,North,350,0.0,0.0,93,0.00,CLR,,0.01,WeatherDisplay:10.37,2013-09-26 04:37:00,
2013-09-25 23:42:00,68.0,66.2,29.82,North,350,0.0,0.0,94,0.00,CLR,,0.01,WeatherDisplay:10.37,2013-09-26 04:42:00,
2013-09-25 23:47:00,67.9,65.8,29.82,North,349,0.0,0.0,93,0.00,CLR,,0.01,WeatherDisplay:10.37,2013-09-26 04:47:00,
2013-09-25 23:52:00,67.9,65.8,29.82,North,349,0.0,0.0,93,0.00,CLR,,0.01,WeatherDisplay:10.37,2013-09-26 04:52:00,
2013-09-25 23:57:00,67.8,66.0,29.82,North,350,0.0,0.0,94,0.00,CLR,,0.01,WeatherDisplay:10.37,2013-09-26 04:57:00,